createdAt,value
2022-08-17T00:00:16.515Z,96689.00
2022-08-17T00:03:08.768Z,96700.00
2022-08-17T00:05:46.844Z,96691.00
2022-08-17T00:08:17.155Z,96688.00
2022-08-17T00:10:45.905Z,96683.00
2022-08-17T00:13:25.847Z,96688.00
2022-08-17T00:15:59.682Z,96702.00
2022-08-17T00:19:06.311Z,96693.00
2022-08-17T00:21:23.776Z,96695.00
2022-08-17T00:23:52.517Z,96696.00
2022-08-17T00:26:34.535Z,96693.00
2022-08-17T00:29:08.444Z,96696.00
2022-08-17T00:31:36.470Z,96700.00
2022-08-17T00:34:06.199Z,96705.00
2022-08-17T00:36:33.131Z,96696.00
2022-08-17T00:39:00.000Z,96697.00
2022-08-17T00:41:28.467Z,96700.00
2022-08-17T00:44:04.606Z,96701.00
2022-08-17T00:46:42.079Z,96696.00
2022-08-17T00:49:12.450Z,96702.00
2022-08-17T00:51:57.421Z,96699.00
2022-08-17T00:54:41.958Z,96698.00
2022-08-17T00:57:18.885Z,96693.00
2022-08-17T01:00:01.976Z,96701.00
2022-08-17T01:02:40.518Z,96694.00
2022-08-17T01:05:17.174Z,96694.00
2022-08-17T01:07:48.513Z,96687.00
2022-08-17T01:10:59.084Z,96682.00
2022-08-17T01:13:06.980Z,96686.00
2022-08-17T01:15:39.285Z,96687.00
2022-08-17T01:18:09.593Z,96687.00
2022-08-17T01:20:58.812Z,96682.00
2022-08-17T01:23:28.927Z,96679.00
2022-08-17T01:26:01.396Z,96676.00
2022-08-17T01:28:52.221Z,96687.00
2022-08-17T01:31:18.309Z,96683.00
2022-08-17T01:33:45.188Z,96689.00
2022-08-17T01:36:12.032Z,96684.00
2022-08-17T01:38:39.359Z,96698.00
2022-08-17T01:41:14.036Z,96693.00
2022-08-17T01:44:02.010Z,96701.00
2022-08-17T01:46:33.991Z,96701.00
2022-08-17T01:49:01.662Z,96693.00
2022-08-17T01:51:32.702Z,96693.00
2022-08-17T01:54:05.674Z,96686.00
2022-08-17T01:56:35.632Z,96691.00
2022-08-17T01:59:02.902Z,96692.00
2022-08-17T02:01:32.872Z,96696.00
2022-08-17T02:04:01.900Z,96685.00
2022-08-17T02:06:47.115Z,96690.00
2022-08-17T02:09:25.218Z,96695.00
2022-08-17T02:11:56.212Z,96697.00
2022-08-17T02:14:24.685Z,96692.00
2022-08-17T02:16:53.197Z,96683.00
2022-08-17T02:19:20.564Z,96684.00
2022-08-17T02:21:50.786Z,96690.00
2022-08-17T02:24:59.843Z,96686.00
2022-08-17T02:31:26.051Z,96677.00
2022-08-17T02:34:04.034Z,96673.00
2022-08-17T02:36:34.522Z,96673.00
2022-08-17T02:39:09.317Z,96676.00
2022-08-17T02:41:36.634Z,96674.00
2022-08-17T02:44:05.845Z,96671.00
2022-08-17T02:46:32.705Z,96670.00
2022-08-17T02:48:59.742Z,96664.00
2022-08-17T02:51:26.943Z,96670.00
2022-08-17T02:54:05.316Z,96661.00
2022-08-17T02:56:40.973Z,96662.00
2022-08-17T02:59:07.786Z,96669.00
2022-08-17T03:01:35.111Z,96663.00
2022-08-17T03:04:02.128Z,96672.00
2022-08-17T03:06:29.195Z,96659.00
2022-08-17T03:08:56.037Z,96664.00
2022-08-17T03:11:23.528Z,96657.00
2022-08-17T03:13:50.727Z,96665.00
2022-08-17T03:16:17.687Z,96662.00
2022-08-17T03:18:44.490Z,96658.00
2022-08-17T03:21:11.595Z,96667.00
2022-08-17T03:23:42.115Z,96665.00
2022-08-17T03:26:13.490Z,96662.00
2022-08-17T03:28:42.663Z,96663.00
2022-08-17T03:31:09.698Z,96670.00
2022-08-17T03:33:36.562Z,96668.00
2022-08-17T03:36:04.131Z,96665.00
2022-08-17T03:38:39.357Z,96663.00
2022-08-17T03:41:07.052Z,96666.00
2022-08-17T03:43:34.615Z,96663.00
2022-08-17T03:46:27.673Z,96664.00
2022-08-17T03:49:23.200Z,96661.00
2022-08-17T03:52:08.583Z,96659.00
2022-08-17T03:54:54.041Z,96653.00
2022-08-17T03:57:21.078Z,96657.00
2022-08-17T03:59:48.152Z,96654.00
2022-08-17T04:02:39.254Z,96661.00
2022-08-17T04:05:06.598Z,96655.00
2022-08-17T04:07:33.481Z,96650.00
2022-08-17T04:10:01.058Z,96649.00
2022-08-17T04:12:31.669Z,96659.00
2022-08-17T04:14:59.005Z,96652.00
2022-08-17T04:17:29.011Z,96654.00
2022-08-17T04:19:57.166Z,96651.00
2022-08-17T04:22:32.445Z,96653.00
2022-08-17T04:25:18.594Z,96660.00
2022-08-17T04:27:45.461Z,96650.00
2022-08-17T04:30:13.324Z,96663.00
2022-08-17T04:33:08.747Z,96655.00
2022-08-17T04:35:46.081Z,96654.00
2022-08-17T04:38:22.855Z,96661.00
2022-08-17T04:41:09.283Z,96665.00
2022-08-17T04:43:38.675Z,96673.00
2022-08-17T04:46:10.184Z,96676.00
2022-08-17T04:48:45.368Z,96674.00
2022-08-17T04:51:33.337Z,96680.00
2022-08-17T04:54:07.011Z,96677.00
2022-08-17T04:56:34.609Z,96682.00
2022-08-17T04:59:06.615Z,96687.00
2022-08-17T05:01:36.141Z,96686.00
2022-08-17T05:04:33.177Z,96685.00
2022-08-17T05:06:57.583Z,96687.00
2022-08-17T05:09:24.423Z,96686.00
2022-08-17T05:11:51.326Z,96695.00
2022-08-17T05:14:18.139Z,96696.00
2022-08-17T05:16:45.766Z,96692.00
2022-08-17T05:19:12.599Z,96690.00
2022-08-17T05:21:39.424Z,96690.00
2022-08-17T05:24:09.686Z,96692.00
2022-08-17T05:26:53.213Z,96682.00
2022-08-17T05:29:22.127Z,96693.00
2022-08-17T05:32:39.691Z,96696.00
2022-08-17T05:35:00.460Z,96696.00
2022-08-17T05:37:28.108Z,96694.00
2022-08-17T05:39:55.023Z,96700.00
2022-08-17T05:42:22.125Z,96696.00
2022-08-17T05:44:49.071Z,96687.00
2022-08-17T05:47:16.545Z,96695.00
2022-08-17T05:49:43.421Z,96696.00
2022-08-17T05:52:29.453Z,96687.00
2022-08-17T05:55:14.875Z,96695.00
2022-08-17T05:58:05.851Z,96700.00
2022-08-17T06:00:44.481Z,96698.00
2022-08-17T06:03:49.871Z,96688.00
2022-08-17T06:06:22.458Z,96695.00
2022-08-17T06:08:55.162Z,96691.00
2022-08-17T06:11:38.152Z,96697.00
2022-08-17T06:14:18.171Z,96693.00
2022-08-17T06:16:52.267Z,96700.00
2022-08-17T06:19:42.084Z,96699.00
2022-08-17T06:22:13.603Z,96696.00
2022-08-17T06:25:03.692Z,96694.00
2022-08-17T06:28:08.396Z,96687.00
2022-08-17T06:30:59.516Z,96689.00
2022-08-17T06:33:35.735Z,96683.00
2022-08-17T06:36:35.301Z,96676.00
2022-08-17T06:39:11.446Z,96675.00
2022-08-17T06:42:09.435Z,96677.00
2022-08-17T06:45:08.316Z,96675.00
2022-08-17T06:47:53.285Z,96678.00
2022-08-17T06:50:40.653Z,96680.00
2022-08-17T06:53:18.061Z,96683.00
2022-08-17T06:56:05.915Z,96678.00
2022-08-17T06:58:35.655Z,96692.00
2022-08-17T07:01:16.134Z,96694.00
2022-08-17T07:03:49.772Z,96689.00
2022-08-17T07:06:21.769Z,96687.00
2022-08-17T07:09:07.905Z,96688.00
2022-08-17T07:11:43.793Z,96692.00
2022-08-17T07:14:17.523Z,96694.00
2022-08-17T07:16:49.218Z,96683.00
2022-08-17T07:19:20.608Z,96688.00
2022-08-17T07:22:18.043Z,96685.00
2022-08-17T07:24:49.688Z,96683.00
2022-08-17T07:27:31.244Z,96689.00
2022-08-17T07:30:20.637Z,96691.00
2022-08-17T07:33:01.271Z,96681.00
2022-08-17T07:35:41.069Z,96687.00
2022-08-17T07:38:30.027Z,96692.00
2022-08-17T07:41:03.222Z,96682.00
2022-08-17T07:43:42.439Z,96694.00
2022-08-17T07:46:46.254Z,96689.00
2022-08-17T07:49:12.969Z,96694.00
2022-08-17T07:52:00.475Z,96693.00
2022-08-17T07:54:48.291Z,96697.00
2022-08-17T07:57:15.099Z,96705.00
2022-08-17T08:00:06.182Z,96705.00
2022-08-17T08:02:45.427Z,96713.00
2022-08-17T08:05:31.709Z,96717.00
2022-08-17T08:08:42.275Z,96712.00
2022-08-17T08:11:15.302Z,96716.00
2022-08-17T08:13:45.475Z,96717.00
2022-08-17T08:16:19.749Z,96715.00
2022-08-17T08:18:55.557Z,96715.00
2022-08-17T08:21:47.613Z,96712.00
2022-08-17T08:24:32.443Z,96709.00
2022-08-17T08:27:39.332Z,96709.00
2022-08-17T08:30:22.723Z,96699.00
2022-08-17T08:33:25.354Z,96706.00
2022-08-17T08:36:56.627Z,96705.00
2022-08-17T08:39:12.927Z,96710.00
2022-08-17T08:42:07.528Z,96706.00
2022-08-17T08:45:10.906Z,96705.00
2022-08-17T08:47:46.882Z,96706.00
2022-08-17T08:50:38.217Z,96707.00
2022-08-17T08:53:24.844Z,96717.00
2022-08-17T08:56:05.399Z,96714.00
2022-08-17T08:58:54.819Z,96713.00
2022-08-17T09:02:16.102Z,96716.00
2022-08-17T09:05:14.232Z,96718.00
2022-08-17T09:08:04.409Z,96714.00
2022-08-17T09:10:59.932Z,96713.00
2022-08-17T09:14:07.433Z,96717.00
2022-08-17T09:17:05.000Z,96718.00
2022-08-17T09:20:06.728Z,96721.00
2022-08-17T09:22:48.935Z,96721.00
2022-08-17T09:25:22.126Z,96722.00
2022-08-17T09:28:07.433Z,96714.00
2022-08-17T09:30:46.893Z,96697.00
2022-08-17T09:33:22.799Z,96693.00
2022-08-17T09:36:05.673Z,96700.00
2022-08-17T09:39:02.363Z,96701.00
2022-08-17T09:42:04.266Z,96695.00
2022-08-17T09:44:54.033Z,96701.00
2022-08-17T09:47:42.061Z,96699.00
2022-08-17T09:51:03.586Z,96700.00
2022-08-17T09:53:09.422Z,96699.00
2022-08-17T09:56:05.284Z,96690.00
2022-08-17T09:59:06.139Z,96687.00
2022-08-17T10:01:43.834Z,96684.00
2022-08-17T10:04:47.704Z,96680.00
2022-08-17T10:07:23.372Z,96677.00
2022-08-17T10:10:24.801Z,96672.00
2022-08-17T10:13:30.612Z,96667.00
2022-08-17T10:16:31.055Z,96673.00
2022-08-17T10:19:24.159Z,96673.00
2022-08-17T10:22:14.776Z,96670.00
2022-08-17T10:25:24.828Z,96666.00
2022-08-17T10:28:07.416Z,96674.00
2022-08-17T10:30:49.373Z,96668.00
2022-08-17T10:33:27.139Z,96673.00
2022-08-17T10:36:10.796Z,96680.00
2022-08-17T10:38:45.908Z,96677.00
2022-08-17T10:41:40.575Z,96678.00
2022-08-17T10:44:44.632Z,96669.00
2022-08-17T10:47:19.667Z,96666.00
2022-08-17T10:49:54.229Z,96672.00
2022-08-17T10:52:24.080Z,96662.00
2022-08-17T10:54:51.889Z,96653.00
2022-08-17T10:57:31.746Z,96663.00
2022-08-17T11:00:14.651Z,96661.00
2022-08-17T11:02:54.178Z,96656.00
2022-08-17T11:06:06.448Z,96659.00
2022-08-17T11:09:07.637Z,96657.00
2022-08-17T11:11:47.283Z,96660.00
2022-08-17T11:14:24.954Z,96654.00
2022-08-17T11:17:13.153Z,96659.00
2022-08-17T11:20:32.010Z,96660.00
2022-08-17T11:23:13.474Z,96659.00
2022-08-17T11:25:49.161Z,96664.00
2022-08-17T11:28:23.996Z,96657.00
2022-08-17T11:30:56.996Z,96652.00
2022-08-17T11:33:30.492Z,96639.00
2022-08-17T11:36:22.570Z,96638.00
2022-08-17T11:39:02.597Z,96638.00
2022-08-17T11:41:44.206Z,96630.00
2022-08-17T11:44:20.887Z,96635.00
2022-08-17T11:47:27.649Z,96631.00
2022-08-17T11:50:28.164Z,96618.00
2022-08-17T11:52:55.563Z,96621.00
2022-08-17T11:55:51.878Z,96632.00
2022-08-17T11:58:30.944Z,96634.00
2022-08-17T12:01:05.943Z,96633.00
2022-08-17T12:03:36.809Z,96634.00
2022-08-17T12:06:24.887Z,96628.00
2022-08-17T12:09:00.630Z,96635.00
2022-08-17T12:12:13.780Z,96639.00
2022-08-17T12:15:09.720Z,96634.00
2022-08-17T12:17:41.003Z,96633.00
2022-08-17T12:20:34.407Z,96641.00
2022-08-17T12:23:23.156Z,96646.00
2022-08-17T12:25:58.494Z,96642.00
2022-08-17T12:28:35.243Z,96649.00
2022-08-17T12:31:06.962Z,96657.00
2022-08-17T12:33:37.299Z,96655.00
2022-08-17T12:36:08.629Z,96658.00
2022-08-17T12:38:37.746Z,96658.00
2022-08-17T12:41:26.596Z,96664.00
2022-08-17T12:44:09.475Z,96668.00
2022-08-17T12:47:19.335Z,96656.00
2022-08-17T12:49:52.194Z,96646.00
2022-08-17T12:52:30.695Z,96647.00
2022-08-17T12:55:22.398Z,96634.00
2022-08-17T12:57:58.421Z,96628.00
2022-08-17T13:00:30.723Z,96627.00
2022-08-17T13:03:09.113Z,96619.00
2022-08-17T13:05:55.967Z,96624.00
2022-08-17T13:08:40.266Z,96625.00
2022-08-17T13:11:18.714Z,96618.00
2022-08-17T13:13:54.735Z,96622.00
2022-08-17T13:16:30.058Z,96622.00
2022-08-17T13:19:15.645Z,96622.00
2022-08-17T13:21:56.169Z,96619.00
2022-08-17T13:24:37.803Z,96627.00
2022-08-17T13:27:08.817Z,96618.00
2022-08-17T13:29:44.710Z,96617.00
2022-08-17T13:32:13.778Z,96620.00
2022-08-17T13:35:12.090Z,96623.00
2022-08-17T13:37:36.392Z,96613.00
2022-08-17T13:40:09.336Z,96616.00
2022-08-17T13:42:51.763Z,96613.00
2022-08-17T13:45:36.647Z,96607.00
2022-08-17T13:48:14.434Z,96617.00
2022-08-17T13:51:02.277Z,96613.00
2022-08-17T13:53:40.126Z,96614.00
2022-08-17T13:56:34.938Z,96608.00
2022-08-17T13:59:54.193Z,96608.00
2022-08-17T14:02:28.245Z,96601.00
2022-08-17T14:04:58.944Z,96600.00
2022-08-17T14:07:34.243Z,96592.00
2022-08-17T14:10:09.609Z,96594.00
2022-08-17T14:12:40.635Z,96592.00
2022-08-17T14:15:08.584Z,96582.00
2022-08-17T14:17:38.827Z,96592.00
2022-08-17T14:20:19.861Z,96582.00
2022-08-17T14:22:52.619Z,96579.00
2022-08-17T14:25:27.353Z,96584.00
2022-08-17T14:27:55.701Z,96583.00
2022-08-17T14:30:28.896Z,96582.00
2022-08-17T14:32:57.954Z,96582.00
2022-08-17T14:35:25.251Z,96577.00
2022-08-17T14:37:52.857Z,96584.00
2022-08-17T14:40:24.948Z,96587.00
2022-08-17T14:42:53.796Z,96582.00
2022-08-17T14:45:30.422Z,96574.00
2022-08-17T14:48:07.475Z,96581.00
2022-08-17T14:50:39.108Z,96575.00
2022-08-17T14:53:09.266Z,96581.00
2022-08-17T14:55:40.419Z,96587.00
2022-08-17T14:58:08.867Z,96582.00
2022-08-17T15:00:38.980Z,96586.00
2022-08-17T15:03:05.977Z,96584.00
2022-08-17T15:05:36.614Z,96576.00
2022-08-17T15:08:05.644Z,96577.00
2022-08-17T15:10:33.312Z,96583.00
2022-08-17T15:13:00.608Z,96568.00
2022-08-17T15:15:28.431Z,96573.00
2022-08-17T15:17:55.749Z,96570.00
2022-08-17T15:20:27.902Z,96573.00
2022-08-17T15:22:57.226Z,96571.00
2022-08-17T15:25:27.471Z,96565.00
2022-08-17T15:27:56.253Z,96563.00
2022-08-17T15:30:25.842Z,96561.00
2022-08-17T15:32:55.371Z,96550.00
2022-08-17T15:35:30.441Z,96544.00
2022-08-17T15:38:10.700Z,96542.00
2022-08-17T15:40:45.391Z,96537.00
2022-08-17T15:43:27.433Z,96541.00
2022-08-17T15:46:01.321Z,96543.00
2022-08-17T15:48:41.699Z,96540.00
2022-08-17T15:51:24.136Z,96550.00
2022-08-17T15:53:58.487Z,96547.00
2022-08-17T15:56:26.662Z,96533.00
2022-08-17T15:58:55.134Z,96539.00
2022-08-17T16:03:01.250Z,96527.00
2022-08-17T16:04:26.910Z,96521.00
2022-08-17T16:06:58.696Z,96520.00
2022-08-17T16:09:25.585Z,96535.00
2022-08-17T16:11:55.529Z,96540.00
2022-08-17T16:14:30.227Z,96549.00
2022-08-17T16:17:00.810Z,96549.00
2022-08-17T16:19:27.707Z,96551.00
2022-08-17T16:21:54.555Z,96554.00
2022-08-17T16:24:21.373Z,96558.00
2022-08-17T16:26:48.272Z,96562.00
2022-08-17T16:29:15.072Z,96556.00
2022-08-17T16:31:43.616Z,96548.00
2022-08-17T16:34:16.271Z,96553.00
2022-08-17T16:36:55.598Z,96547.00
2022-08-17T16:39:29.246Z,96560.00
2022-08-17T16:41:56.943Z,96560.00
2022-08-17T16:44:25.716Z,96567.00
2022-08-17T16:46:52.723Z,96556.00
2022-08-17T16:49:31.940Z,96566.00
2022-08-17T16:52:07.124Z,96568.00
2022-08-17T16:54:35.350Z,96563.00
2022-08-17T16:57:05.751Z,96560.00
2022-08-17T16:59:41.978Z,96560.00
2022-08-17T17:02:17.185Z,96569.00
2022-08-17T17:05:02.577Z,96567.00
2022-08-17T17:08:04.060Z,96571.00
2022-08-17T17:10:52.606Z,96572.00
2022-08-17T17:13:57.847Z,96572.00
2022-08-17T17:17:01.208Z,96569.00
2022-08-17T17:19:37.460Z,96573.00
2022-08-17T17:22:19.425Z,96571.00
2022-08-17T17:25:13.539Z,96560.00
2022-08-17T17:28:01.802Z,96568.00
2022-08-17T17:30:57.667Z,96566.00
2022-08-17T17:33:52.603Z,96573.00
2022-08-17T17:36:19.353Z,96574.00
2022-08-17T17:38:55.607Z,96573.00
2022-08-17T17:41:34.204Z,96571.00
2022-08-17T17:44:12.230Z,96568.00
2022-08-17T17:46:54.184Z,96578.00
2022-08-17T17:49:21.431Z,96571.00
2022-08-17T17:52:19.437Z,96572.00
2022-08-17T17:55:22.308Z,96578.00
2022-08-17T17:58:22.698Z,96571.00
2022-08-17T18:01:10.070Z,96567.00
2022-08-17T18:04:15.653Z,96560.00
2022-08-17T18:07:12.170Z,96557.00
2022-08-17T18:09:53.803Z,96570.00
2022-08-17T18:12:57.186Z,96569.00
2022-08-17T18:15:31.359Z,96558.00
2022-08-17T18:18:14.171Z,96560.00
2022-08-17T18:20:54.009Z,96556.00
2022-08-17T18:23:28.123Z,96559.00
2022-08-17T18:25:56.329Z,96568.00
2022-08-17T18:28:39.737Z,96561.00
2022-08-17T18:31:19.515Z,96559.00
2022-08-17T18:33:51.371Z,96556.00
2022-08-17T18:36:33.876Z,96557.00
2022-08-17T18:39:21.089Z,96566.00
2022-08-17T18:41:53.115Z,96560.00
2022-08-17T18:44:55.109Z,96561.00
2022-08-17T18:47:27.973Z,96557.00
2022-08-17T18:50:00.445Z,96562.00
2022-08-17T18:52:31.928Z,96564.00
2022-08-17T18:55:29.244Z,96561.00
2022-08-17T18:58:00.146Z,96568.00
2022-08-17T19:00:29.740Z,96575.00
2022-08-17T19:03:02.837Z,96570.00
2022-08-17T19:05:40.954Z,96566.00
2022-08-17T19:08:28.676Z,96571.00
2022-08-17T19:11:23.393Z,96574.00
2022-08-17T19:13:53.567Z,96565.00
2022-08-17T19:17:10.268Z,96566.00
2022-08-17T19:20:10.231Z,96562.00
2022-08-17T19:23:35.878Z,96565.00
2022-08-17T19:26:51.144Z,96547.00
2022-08-17T19:29:31.589Z,96546.00
2022-08-17T19:32:01.678Z,96560.00
2022-08-17T19:34:34.478Z,96557.00
2022-08-17T19:38:00.692Z,96543.00
2022-08-17T19:40:54.136Z,96546.00
2022-08-17T19:43:36.191Z,96544.00
2022-08-17T19:46:56.101Z,96536.00
2022-08-17T19:49:55.483Z,96533.00
2022-08-17T19:52:59.774Z,96534.00
2022-08-17T19:56:06.320Z,96527.00
2022-08-17T19:58:49.954Z,96524.00
2022-08-17T20:01:45.814Z,96528.00
2022-08-17T20:04:32.276Z,96532.00
2022-08-17T20:07:34.377Z,96518.00
2022-08-17T20:10:08.945Z,96525.00
2022-08-17T20:12:39.598Z,96531.00
2022-08-17T20:15:13.287Z,96534.00
2022-08-17T20:17:45.359Z,96548.00
2022-08-17T20:21:04.987Z,96560.00
2022-08-17T20:23:53.600Z,96568.00
2022-08-17T20:26:27.860Z,96572.00
2022-08-17T20:29:37.173Z,96577.00
2022-08-17T20:32:19.231Z,96575.00
2022-08-17T20:34:47.607Z,96582.00
2022-08-17T20:37:14.469Z,96582.00
2022-08-17T20:40:08.814Z,96582.00
2022-08-17T20:42:36.699Z,96578.00
2022-08-17T20:45:24.372Z,96579.00
2022-08-17T20:48:20.088Z,96584.00
2022-08-17T20:51:00.945Z,96590.00
2022-08-17T20:53:46.624Z,96589.00
2022-08-17T20:56:43.084Z,96596.00
2022-08-17T20:59:31.583Z,96604.00
2022-08-17T21:02:17.529Z,96598.00
2022-08-17T21:04:59.805Z,96607.00
2022-08-17T21:07:45.842Z,96609.00
2022-08-17T21:10:22.571Z,96609.00
2022-08-17T21:13:14.058Z,96597.00
2022-08-17T21:16:15.389Z,96605.00
2022-08-17T21:20:00.227Z,96602.00
2022-08-17T21:22:56.745Z,96597.00
2022-08-17T21:26:10.128Z,96603.00
2022-08-17T21:29:01.676Z,96591.00
2022-08-17T21:32:09.660Z,96592.00
2022-08-17T21:34:44.919Z,96598.00
2022-08-17T21:37:23.714Z,96593.00
2022-08-17T21:40:00.410Z,96590.00
2022-08-17T21:42:34.595Z,96580.00
2022-08-17T21:45:31.430Z,96594.00
2022-08-17T21:48:27.401Z,96590.00
2022-08-17T21:51:08.905Z,96589.00
2022-08-17T21:53:47.995Z,96587.00
2022-08-17T21:56:38.184Z,96588.00
2022-08-17T21:59:21.872Z,96588.00
2022-08-17T22:02:17.676Z,96591.00
2022-08-17T22:05:02.945Z,96582.00
2022-08-17T22:07:47.703Z,96578.00
2022-08-17T22:10:41.822Z,96577.00
2022-08-17T22:13:17.050Z,96570.00
2022-08-17T22:15:49.955Z,96570.00
2022-08-17T22:18:27.415Z,96574.00
2022-08-17T22:20:58.573Z,96579.00
2022-08-17T22:23:49.704Z,96577.00
2022-08-17T22:26:19.552Z,96582.00
2022-08-17T22:28:54.400Z,96586.00
2022-08-17T22:31:28.361Z,96584.00
2022-08-17T22:33:59.749Z,96581.00
2022-08-17T22:36:36.992Z,96595.00
2022-08-17T22:39:09.789Z,96583.00
2022-08-17T22:41:54.378Z,96589.00
2022-08-17T22:44:35.548Z,96587.00
2022-08-17T22:47:14.355Z,96590.00
2022-08-17T22:49:57.273Z,96586.00
2022-08-17T22:53:01.423Z,96591.00
2022-08-17T22:55:50.162Z,96582.00
2022-08-17T22:58:40.430Z,96579.00
2022-08-17T23:01:32.330Z,96582.00
2022-08-17T23:04:02.413Z,96575.00
2022-08-17T23:06:32.421Z,96572.00
2022-08-17T23:09:00.032Z,96560.00
2022-08-17T23:11:48.685Z,96558.00
2022-08-17T23:14:21.094Z,96551.00
2022-08-17T23:16:50.327Z,96548.00
2022-08-17T23:19:20.974Z,96549.00
2022-08-17T23:21:50.977Z,96541.00
2022-08-17T23:24:23.860Z,96542.00
2022-08-17T23:26:50.672Z,96541.00
2022-08-17T23:29:17.530Z,96537.00
2022-08-17T23:31:44.403Z,96541.00
2022-08-17T23:34:14.942Z,96533.00
2022-08-17T23:36:45.325Z,96537.00
2022-08-17T23:39:13.509Z,96531.00
2022-08-17T23:41:53.412Z,96538.00
2022-08-17T23:44:24.452Z,96538.00
2022-08-17T23:46:52.616Z,96538.00
2022-08-17T23:49:19.926Z,96535.00
2022-08-17T23:51:48.805Z,96536.00
2022-08-17T23:54:33.585Z,96539.00
2022-08-17T23:57:04.807Z,96545.00
2022-08-17T23:59:32.876Z,96538.00
